Time;durP1;ratioP1;P1;durP2;ratioP2;P2;SDS_P1;SDS_P2;PMS_P1;PMS_P2;Temp;Humidity;BMP_temperature;BMP_pressure;BME280_temperature;BME280_humidity;BME280_pressure;Samples;Min_cycle;Max_cycle;Signal;HPM_P1;HPM_P2
2023/04/23 00:00:26;;;;;;;5.33;4.93;;;;;;;14.33;100.00;99680.88;5075598;28;20218;-72
2023/04/23 00:02:52;;;;;;;6.23;5.70;;;;;;;14.29;100.00;99687.06;5079783;28;20257;-73
2023/04/23 00:05:19;;;;;;;5.07;4.57;;;;;;;14.23;100.00;99687.25;5077724;28;20275;-72
2023/04/23 00:07:45;;;;;;;5.10;4.70;;;;;;;14.18;100.00;99682.22;5077256;28;20209;-74
2023/04/23 00:10:11;;;;;;;4.87;4.47;;;;;;;14.14;100.00;99689.28;5060357;28;20816;-73
2023/04/23 00:12:36;;;;;;;5.17;4.73;;;;;;;14.13;100.00;99684.97;5078161;28;20664;-73
2023/04/23 00:15:03;;;;;;;5.43;4.93;;;;;;;14.10;100.00;99694.66;5077986;28;20181;-74
2023/04/23 00:17:29;;;;;;;5.27;4.77;;;;;;;14.06;100.00;99690.44;5073844;28;20293;-73
2023/04/23 00:19:54;;;;;;;5.37;4.90;;;;;;;14.02;100.00;99689.69;5077089;28;20654;-73
2023/04/23 00:22:21;;;;;;;5.50;5.00;;;;;;;13.97;100.00;99694.19;5078531;28;20236;-76
2023/04/23 00:24:46;;;;;;;5.60;5.10;;;;;;;13.93;100.00;99693.44;5080486;28;20217;-73
2023/04/23 00:27:11;;;;;;;5.07;4.67;;;;;;;13.84;100.00;99696.34;5057203;28;20301;-73
2023/04/23 00:29:37;;;;;;;6.77;5.40;;;;;;;13.80;100.00;99694.75;5077041;28;20316;-73
2023/04/23 00:32:02;;;;;;;5.20;4.80;;;;;;;13.74;100.00;99698.41;5074649;28;20207;-76
2023/04/23 00:34:28;;;;;;;5.63;5.13;;;;;;;13.72;100.00;99697.59;5080030;28;20708;-73
2023/04/23 00:36:54;;;;;;;5.40;4.90;;;;;;;13.70;100.00;99704.59;5076359;28;20241;-73
2023/04/23 00:39:19;;;;;;;6.97;5.30;;;;;;;13.67;100.00;99700.34;5077164;28;20571;-75
2023/04/23 00:41:44;;;;;;;5.67;5.17;;;;;;;13.65;100.00;99698.66;5072400;28;20198;-74
2023/04/23 00:44:10;;;;;;;5.80;5.30;;;;;;;13.63;100.00;99700.47;5075774;28;20275;-75
2023/04/23 00:46:36;;;;;;;5.77;5.27;;;;;;;13.59;100.00;99701.47;5074508;28;20203;-74
2023/04/23 00:49:02;;;;;;;5.90;5.30;;;;;;;13.56;100.00;99695.47;5058168;28;20248;-73
2023/04/23 00:51:28;;;;;;;6.03;5.53;;;;;;;13.54;100.00;99701.59;5074552;28;20195;-73
2023/04/23 00:53:54;;;;;;;6.40;5.80;;;;;;;13.48;100.00;99709.59;5075282;28;20243;-74
2023/04/23 00:56:21;;;;;;;5.70;5.20;;;;;;;13.44;100.00;99702.78;5076386;28;20243;-74
2023/04/23 00:58:47;;;;;;;6.10;5.60;;;;;;;13.42;100.00;99705.44;5077466;28;20189;-73
2023/04/23 01:01:12;;;;;;;6.47;5.90;;;;;;;13.39;100.00;99698.53;5074093;28;20197;-73
2023/04/23 01:03:41;;;;;;;5.60;5.10;;;;;;;13.39;100.00;99697.69;5076419;28;20198;-75
2023/04/23 01:06:07;;;;;;;6.10;5.60;;;;;;;13.37;100.00;99702.06;5056088;28;20184;-74
2023/04/23 01:08:33;;;;;;;5.70;5.20;;;;;;;13.38;100.00;99696.00;5075864;28;20237;-74
2023/04/23 01:10:59;;;;;;;6.33;5.43;;;;;;;13.35;100.00;99694.34;5075678;28;20192;-73
2023/04/23 01:13:28;;;;;;;5.83;5.33;;;;;;;13.34;100.00;99697.84;5057367;28;20225;-71
2023/04/23 01:15:54;;;;;;;5.67;5.17;;;;;;;13.31;100.00;99697.09;5076612;28;20312;-76
2023/04/23 01:18:20;;;;;;;5.30;4.90;;;;;;;13.32;100.00;99698.75;5059219;28;20249;-73
2023/04/23 01:20:45;;;;;;;5.17;4.67;;;;;;;13.27;100.00;99694.56;5075587;28;20279;-74
2023/04/23 01:23:11;;;;;;;5.13;4.63;;;;;;;13.24;100.00;99701.59;5076137;28;20441;-73
2023/04/23 01:25:37;;;;;;;5.87;5.43;;;;;;;13.24;100.00;99702.44;5077134;28;20199;-73
2023/04/23 01:28:05;;;;;;;5.13;4.63;;;;;;;13.21;100.00;99702.53;5073967;28;20207;-73
2023/04/23 01:30:32;;;;;;;5.30;4.80;;;;;;;13.21;100.00;99699.94;5078197;28;20189;-72
2023/04/23 01:32:57;;;;;;;5.60;5.10;;;;;;;13.21;100.00;99704.28;5077584;28;20200;-70
2023/04/23 01:35:23;;;;;;;5.03;4.53;;;;;;;13.19;100.00;99700.88;5073573;28;20243;-74
2023/04/23 01:37:53;;;;;;;5.07;4.63;;;;;;;13.17;100.00;99708.72;5077062;28;20325;-74
2023/04/23 01:40:21;;;;;;;4.30;4.00;;;;;;;13.18;100.00;99706.97;5074892;28;20195;-74
2023/04/23 01:42:47;;;;;;;4.23;3.83;;;;;;;13.18;100.00;99710.41;5077047;28;20188;-72
2023/04/23 01:45:13;;;;;;;4.10;3.80;;;;;;;13.18;100.00;99709.56;5075203;28;20200;-74
2023/04/23 01:47:40;;;;;;;4.57;4.17;;;;;;;13.19;100.00;99713.88;5076074;28;20207;-74
2023/04/23 01:50:06;;;;;;;3.87;3.57;;;;;;;13.20;100.00;99716.41;5071295;28;20184;-74
2023/04/23 01:52:32;;;;;;;4.13;3.73;;;;;;;13.20;100.00;99716.41;5056390;28;20199;-73
2023/04/23 01:54:57;;;;;;;3.90;3.60;;;;;;;13.20;100.00;99718.19;5076207;28;20196;-71
2023/04/23 01:57:25;;;;;;;3.70;3.40;;;;;;;13.18;100.00;99725.16;5073050;28;20260;-74
2023/04/23 02:00:00;;;;;;;4.50;3.90;;;;;;;13.19;100.00;99719.91;5074704;28;20189;-73
2023/04/23 02:02:25;;;;;;;4.20;3.90;;;;;;;13.18;100.00;99719.97;5073950;28;20708;-74
2023/04/23 02:04:52;;;;;;;3.40;3.10;;;;;;;13.16;100.00;99714.78;5080674;28;20273;-74
2023/04/23 02:07:17;;;;;;;3.60;3.30;;;;;;;13.13;100.00;99716.63;5078571;28;20260;-74
2023/04/23 02:09:42;;;;;;;3.53;3.23;;;;;;;13.04;100.00;99713.44;5081750;28;20747;-74
2023/04/23 02:12:08;;;;;;;4.23;3.60;;;;;;;13.01;100.00;99716.09;5079438;28;20616;-74
2023/04/23 02:14:33;;;;;;;4.10;3.40;;;;;;;12.94;100.00;99718.03;5081784;28;20199;-73
2023/04/23 02:16:58;;;;;;;3.27;2.97;;;;;;;12.93;100.00;99718.06;5078323;28;20211;-73
2023/04/23 02:19:24;;;;;;;2.90;2.70;;;;;;;12.91;100.00;99714.66;5082474;28;20195;-73
2023/04/23 02:21:49;;;;;;;3.00;2.80;;;;;;;12.90;100.00;99708.59;5079692;28;20194;-74
2023/04/23 02:24:15;;;;;;;3.03;2.83;;;;;;;12.92;100.00;99717.22;5078091;28;20223;-74
2023/04/23 02:26:40;;;;;;;2.80;2.60;;;;;;;12.93;100.00;99712.88;5077584;28;20205;-75
2023/04/23 02:29:05;;;;;;;2.60;2.40;;;;;;;12.93;100.00;99710.28;5074859;28;20271;-74
2023/04/23 02:31:30;;;;;;;2.63;2.43;;;;;;;12.94;100.00;99706.75;5076886;28;20197;-73
2023/04/23 02:33:56;;;;;;;2.57;2.27;;;;;;;12.95;100.00;99709.34;5079882;28;20194;-71
2023/04/23 02:36:22;;;;;;;2.90;2.30;;;;;;;12.94;100.00;99710.22;5059937;28;20229;-73
2023/04/23 02:38:49;;;;;;;2.50;2.30;;;;;;;12.94;100.00;99705.03;5061638;28;20245;-73
2023/04/23 02:41:15;;;;;;;2.80;2.60;;;;;;;12.95;100.00;99706.75;5078757;28;20196;-73
2023/04/23 02:43:41;;;;;;;3.53;2.70;;;;;;;12.96;100.00;99703.25;5080557;28;20289;-73
2023/04/23 02:46:08;;;;;;;2.30;2.10;;;;;;;12.95;100.00;99704.16;5076809;28;20222;-74
2023/04/23 02:48:39;;;;;;;2.70;2.50;;;;;;;12.96;100.00;99699.78;5080345;28;20191;-74
2023/04/23 02:51:06;;;;;;;2.43;2.23;;;;;;;12.95;100.00;99701.53;5055667;28;20192;-73
2023/04/23 02:53:32;;;;;;;2.50;2.30;;;;;;;12.94;100.00;99691.19;5079575;28;20227;-71
2023/04/23 02:55:57;;;;;;;2.23;2.10;;;;;;;12.94;100.00;99693.78;5080283;28;20287;-71
2023/04/23 02:58:23;;;;;;;3.10;2.60;;;;;;;12.94;100.00;99704.16;5075724;28;20212;-73
2023/04/23 03:00:48;;;;;;;2.97;2.40;;;;;;;12.92;100.00;99695.59;5076542;28;20568;-74
2023/04/23 03:03:14;;;;;;;2.50;2.30;;;;;;;12.94;100.00;99704.16;5080276;28;20295;-73
2023/04/23 03:05:39;;;;;;;2.70;2.23;;;;;;;12.93;100.00;99699.91;5077306;28;20191;-73
2023/04/23 03:08:04;;;;;;;2.50;2.30;;;;;;;12.94;100.00;99701.56;5079325;28;20207;-73
2023/04/23 03:10:30;;;;;;;3.50;2.30;;;;;;;12.95;100.00;99705.88;5076720;28;20315;-73
2023/04/23 03:12:55;;;;;;;2.50;2.30;;;;;;;12.99;100.00;99710.09;5080676;28;20980;-74
2023/04/23 03:15:21;;;;;;;2.93;2.37;;;;;;;13.01;100.00;99720.47;5074360;28;20646;-74
2023/04/23 03:17:46;;;;;;;2.60;2.40;;;;;;;13.00;100.00;99717.00;5081039;28;20220;-72
2023/04/23 03:20:12;;;;;;;2.50;2.30;;;;;;;13.01;100.00;99726.50;5077446;28;20207;-72
2023/04/23 03:22:37;;;;;;;3.30;3.00;;;;;;;13.02;100.00;99717.81;5060801;28;20194;-73
2023/04/23 03:25:03;;;;;;;3.00;2.80;;;;;;;13.02;100.00;99715.22;5059267;28;20188;-74
2023/04/23 03:27:28;;;;;;;2.80;2.60;;;;;;;13.02;100.00;99715.22;5077911;28;20201;-74
2023/04/23 03:29:54;;;;;;;3.20;3.00;;;;;;;13.04;100.00;99718.63;5079148;28;20183;-74
2023/04/23 03:32:19;;;;;;;3.30;3.10;;;;;;;13.06;100.00;99727.22;5077584;28;20276;-74
2023/04/23 03:34:44;;;;;;;3.50;3.00;;;;;;;13.08;100.00;99732.38;5078807;28;20203;-76
2023/04/23 03:37:10;;;;;;;2.90;2.70;;;;;;;13.09;100.00;99731.47;5074780;28;20219;-74
2023/04/23 03:39:35;;;;;;;3.17;2.93;;;;;;;13.10;100.00;99725.38;5079335;28;20188;-72
2023/04/23 03:42:00;;;;;;;3.27;3.03;;;;;;;13.10;100.00;99723.63;5073673;28;20205;-73
2023/04/23 03:44:26;;;;;;;4.97;3.37;;;;;;;13.09;100.00;99716.72;5076960;28;20187;-74
2023/04/23 03:46:51;;;;;;;3.33;3.13;;;;;;;13.09;100.00;99716.72;5072327;28;20215;-73
2023/04/23 03:49:16;;;;;;;3.77;3.47;;;;;;;13.09;100.00;99718.47;5073266;28;20306;-72
2023/04/23 03:51:42;;;;;;;3.77;3.47;;;;;;;13.08;100.00;99721.97;5059158;28;20193;-74
2023/04/23 03:54:07;;;;;;;4.07;3.77;;;;;;;13.07;100.00;99726.34;5077113;28;20187;-75
2023/04/23 03:56:32;;;;;;;3.83;3.53;;;;;;;13.06;100.00;99722.03;5079108;28;20925;-74
2023/04/23 03:58:58;;;;;;;4.00;3.70;;;;;;;13.05;100.00;99730.72;5059078;28;20223;-74
2023/04/23 04:01:23;;;;;;;3.70;3.40;;;;;;;13.04;100.00;99726.41;5074071;28;20226;-73
2023/04/23 04:03:48;;;;;;;3.90;3.60;;;;;;;13.04;100.00;99734.22;5080121;28;20182;-74
2023/04/23 04:06:14;;;;;;;3.70;3.40;;;;;;;13.04;100.00;99734.22;5075379;28;21014;-75
2023/04/23 04:08:39;;;;;;;4.23;3.90;;;;;;;13.05;100.00;99732.44;5060794;28;20176;-73
2023/04/23 04:11:04;;;;;;;4.23;3.83;;;;;;;13.05;100.00;99735.03;5074679;28;20211;-74
2023/04/23 04:13:30;;;;;;;4.17;3.87;;;;;;;13.06;100.00;99734.16;5074599;28;20203;-74
2023/04/23 04:15:55;;;;;;;4.10;3.80;;;;;;;13.06;100.00;99736.75;5077999;28;20192;-73
2023/04/23 04:18:20;;;;;;;4.17;3.87;;;;;;;13.07;100.00;99730.66;5078421;28;20220;-75
2023/04/23 04:20:46;;;;;;;4.00;3.70;;;;;;;13.07;100.00;99733.25;5059701;28;20633;-75
2023/04/23 04:23:11;;;;;;;4.63;4.23;;;;;;;13.06;100.00;99737.63;5059641;28;20205;-74
2023/04/23 04:25:38;;;;;;;4.60;4.20;;;;;;;13.05;100.00;99728.13;5076965;28;20195;-74
2023/04/23 04:28:06;;;;;;;4.77;4.40;;;;;;;13.03;100.00;99731.63;5074473;28;20201;-74
2023/04/23 04:30:32;;;;;;;5.20;4.80;;;;;;;13.02;100.00;99727.31;5070807;28;20191;-73
2023/04/23 04:32:58;;;;;;;4.67;4.20;;;;;;;12.99;100.00;99725.69;5073765;28;20181;-75
2023/04/23 04:35:24;;;;;;;4.80;4.50;;;;;;;12.99;100.00;99727.44;5058133;28;20191;-73
2023/04/23 04:37:49;;;;;;;4.97;4.57;;;;;;;12.96;100.00;99725.75;5078220;28;20223;-74
2023/04/23 04:40:14;;;;;;;4.87;4.47;;;;;;;12.93;100.00;99721.50;5076906;28;20223;-74
2023/04/23 04:42:40;;;;;;;4.50;4.20;;;;;;;12.90;100.00;99731.97;5074776;28;20210;-74
2023/04/23 04:45:07;;;;;;;4.80;4.40;;;;;;;12.89;100.00;99726.84;5076984;28;20291;-73
2023/04/23 04:47:33;;;;;;;5.03;4.63;;;;;;;12.86;100.00;99722.56;5074072;28;20199;-75
2023/04/23 04:49:59;;;;;;;4.20;3.90;;;;;;;12.84;100.00;99723.50;5073122;28;20195;-74
2023/04/23 04:52:24;;;;;;;4.60;4.30;;;;;;;12.82;100.00;99713.19;5077966;28;20198;-74
2023/04/23 04:54:50;;;;;;;4.63;4.23;;;;;;;12.81;100.00;99716.66;5077503;28;21019;-74
2023/04/23 04:57:15;;;;;;;4.33;3.93;;;;;;;12.83;100.00;99714.00;5074251;28;20272;-74
2023/04/23 04:59:40;;;;;;;5.00;4.60;;;;;;;12.81;100.00;99717.50;5077648;28;20191;-71
2023/04/23 05:02:06;;;;;;;4.30;4.00;;;;;;;12.78;100.00;99720.16;5078482;28;20192;-75
2023/04/23 05:04:31;;;;;;;4.60;4.13;;;;;;;12.78;100.00;99727.13;5074492;28;20232;-73
2023/04/23 05:06:57;;;;;;;4.60;4.27;;;;;;;12.79;100.00;99726.22;5080526;28;20278;-72
2023/04/23 05:09:22;;;;;;;4.20;3.90;;;;;;;12.78;100.00;99717.56;5077050;28;20197;-74
2023/04/23 05:11:47;;;;;;;3.90;3.60;;;;;;;12.81;100.00;99732.25;5080317;28;20190;-75
2023/04/23 05:14:13;;;;;;;3.53;3.33;;;;;;;12.83;100.00;99721.81;5056975;28;20203;-74
2023/04/23 05:16:38;;;;;;;4.70;4.30;;;;;;;12.86;100.00;99724.31;5075180;28;20228;-75
2023/04/23 05:19:04;;;;;;;3.73;3.43;;;;;;;12.87;100.00;99715.63;5077607;28;20299;-73
2023/04/23 05:21:30;;;;;;;4.20;3.60;;;;;;;12.87;100.00;99715.63;5079708;28;20230;-74
2023/04/23 05:23:55;;;;;;;4.20;3.80;;;;;;;12.85;100.00;99722.63;5077360;28;20266;-73
2023/04/23 05:26:21;;;;;;;3.87;3.57;;;;;;;12.81;100.00;99714.91;5061173;28;20195;-74
2023/04/23 05:28:46;;;;;;;3.97;3.67;;;;;;;12.80;100.00;99710.59;5078761;28;20178;-74
2023/04/23 05:31:11;;;;;;;3.80;3.50;;;;;;;12.81;100.00;99707.09;5073019;28;20296;-75
2023/04/23 05:33:37;;;;;;;3.83;3.53;;;;;;;12.86;100.00;99716.53;5077243;28;20201;-74
2023/04/23 05:36:03;;;;;;;3.97;3.67;;;;;;;12.94;100.00;99715.44;5074466;28;20293;-76
2023/04/23 05:38:28;;;;;;;4.43;4.07;;;;;;;13.09;100.00;99716.72;5078940;28;20581;-75
2023/04/23 05:40:53;;;;;;;4.07;3.70;;;;;;;13.51;100.00;99712.94;5080975;28;20187;-76
2023/04/23 05:43:19;;;;;;;3.60;3.30;;;;;;;14.01;100.00;99709.66;5076773;28;20922;-75
2023/04/23 05:45:44;;;;;;;3.73;3.43;;;;;;;14.78;100.00;99710.56;5069812;28;20200;-75
2023/04/23 05:48:10;;;;;;;3.37;3.07;;;;;;;15.98;100.00;99712.16;5071354;28;20213;-75
2023/04/23 05:50:35;;;;;;;3.10;2.60;;;;;;;17.04;100.00;99705.97;5067494;28;20190;-75
2023/04/23 05:53:00;;;;;;;2.70;2.50;;;;;;;17.84;100.00;99709.22;5067832;28;20193;-76
2023/04/23 05:55:25;;;;;;;2.37;2.20;;;;;;;18.30;100.00;99703.53;5074746;28;20253;-74
2023/04/23 05:57:51;;;;;;;2.30;2.10;;;;;;;18.12;100.00;99706.16;5080977;28;20245;-74
2023/04/23 06:00:16;;;;;;;2.60;2.10;;;;;;;17.56;100.00;99707.06;5059886;28;20191;-73
2023/04/23 06:02:42;;;;;;;2.23;2.13;;;;;;;16.97;100.00;99707.16;5073003;28;20199;-74
2023/04/23 06:05:08;;;;;;;2.03;1.93;;;;;;;16.49;100.00;99706.59;5070580;28;20191;-75
2023/04/23 06:07:33;;;;;;;2.17;1.97;;;;;;;16.14;100.00;99705.41;5072865;28;20201;-74
2023/04/23 06:09:58;;;;;;;2.43;2.23;;;;;;;15.89;100.00;99713.38;5079266;28;20184;-75
2023/04/23 06:12:24;;;;;;;2.53;2.40;;;;;;;15.69;100.00;99712.41;5078607;28;20185;-74
2023/04/23 06:14:51;;;;;;;3.50;3.20;;;;;;;15.54;100.00;99716.44;5081219;28;20673;-73
2023/04/23 06:17:17;;;;;;;2.70;2.50;;;;;;;15.39;100.00;99704.00;5082326;28;20221;-74
2023/04/23 06:19:42;;;;;;;2.77;2.57;;;;;;;15.28;100.00;99709.63;5083079;28;20192;-74
2023/04/23 06:22:07;;;;;;;3.23;3.00;;;;;;;15.23;100.00;99704.56;5083611;28;20195;-74
2023/04/23 06:24:34;;;;;;;2.87;2.70;;;;;;;15.56;100.00;99708.59;5076636;28;20612;-72
2023/04/23 06:27:00;;;;;;;3.10;2.90;;;;;;;16.40;100.00;99697.38;5064519;28;20286;-74
2023/04/23 06:29:26;;;;;;;3.20;2.90;;;;;;;17.65;100.00;99704.03;5101629;28;20185;-76
2023/04/23 06:31:54;;;;;;;2.50;2.30;;;;;;;18.86;99.93;99701.50;5086291;28;20194;-74
2023/04/23 06:34:19;;;;;;;2.60;2.40;;;;;;;19.69;95.60;99697.94;5088668;28;20226;-73
2023/04/23 06:36:44;;;;;;;2.67;2.40;;;;;;;19.60;95.34;99704.56;5088201;28;20248;-75
2023/04/23 06:39:10;;;;;;;2.03;1.93;;;;;;;20.10;93.03;99693.91;5082692;28;20636;-75
2023/04/23 06:41:35;;;;;;;2.03;1.80;;;;;;;20.24;91.58;99690.47;5068705;28;20192;-74
2023/04/23 06:44:00;;;;;;;1.90;1.80;;;;;;;20.37;91.35;99686.16;5082796;28;20283;-75
2023/04/23 06:46:26;;;;;;;1.67;1.57;;;;;;;20.91;88.82;99684.75;5075267;28;20205;-73
2023/04/23 06:48:51;;;;;;;1.90;1.63;;;;;;;20.54;88.49;99687.81;5077370;28;20191;-74
2023/04/23 06:51:17;;;;;;;1.30;1.20;;;;;;;19.71;90.43;99687.34;5061621;28;20269;-75
2023/04/23 06:53:42;;;;;;;1.60;1.30;;;;;;;19.07;92.78;99685.59;5078557;28;20252;-74
2023/04/23 06:56:07;;;;;;;1.20;1.10;;;;;;;18.62;94.16;99680.03;5071204;28;20177;-74
2023/04/23 06:58:33;;;;;;;1.47;1.30;;;;;;;18.24;95.70;99681.09;5075023;28;20218;-75
2023/04/23 07:00:59;;;;;;;1.27;1.17;;;;;;;18.04;96.82;99678.66;5077329;28;20214;-75
2023/04/23 07:03:27;;;;;;;1.27;1.17;;;;;;;18.00;96.96;99677.09;5075112;28;20181;-76
2023/04/23 07:05:52;;;;;;;1.23;1.13;;;;;;;17.95;96.86;99675.50;5076989;28;20249;-75
2023/04/23 07:08:19;;;;;;;1.73;0.93;;;;;;;17.74;97.21;99677.41;5077872;28;20209;-74
2023/04/23 07:10:45;;;;;;;1.23;1.13;;;;;;;17.55;97.82;99680.06;5074072;28;20195;-76
2023/04/23 07:13:10;;;;;;;1.13;1.00;;;;;;;17.45;98.05;99678.84;5078792;28;20191;-74
2023/04/23 07:15:36;;;;;;;1.53;1.00;;;;;;;17.42;98.45;99679.81;5056921;28;20241;-74
2023/04/23 07:18:02;;;;;;;1.10;1.00;;;;;;;17.49;98.71;99681.22;5082569;28;20300;-74
2023/04/23 07:20:27;;;;;;;1.10;1.00;;;;;;;17.66;98.13;99672.56;5079468;28;20193;-77
2023/04/23 07:22:53;;;;;;;1.00;0.93;;;;;;;17.81;97.90;99680.56;5075485;28;20216;-75
2023/04/23 07:25:20;;;;;;;1.10;1.10;;;;;;;17.88;97.67;99670.66;5077925;28;20219;-75
2023/04/23 07:27:45;;;;;;;1.10;1.00;;;;;;;17.88;97.63;99668.91;5077162;28;20266;-75
2023/04/23 07:30:11;;;;;;;2.60;1.20;;;;;;;17.87;97.79;99666.34;5079295;28;20184;-76
2023/04/23 07:32:36;;;;;;;1.23;0.90;;;;;;;17.85;97.23;99661.19;5079632;28;20203;-78
2023/04/23 07:35:03;;;;;;;1.93;0.80;;;;;;;17.87;97.20;99659.34;5078975;28;20189;-73
2023/04/23 07:37:29;;;;;;;0.80;0.80;;;;;;;18.11;96.47;99664.31;5077494;28;20206;-75
2023/04/23 07:39:54;;;;;;;1.10;1.00;;;;;;;18.30;95.93;99658.13;5076427;28;20186;-76
2023/04/23 07:42:19;;;;;;;1.07;0.97;;;;;;;18.42;95.42;99655.75;5078813;28;20180;-74
2023/04/23 07:44:45;;;;;;;1.20;1.10;;;;;;;18.55;95.21;99658.56;5069201;28;20184;-75
2023/04/23 07:47:10;;;;;;;0.80;0.70;;;;;;;18.71;94.63;99655.13;5074612;28;20207;-73
2023/04/23 07:49:35;;;;;;;0.80;0.80;;;;;;;18.91;94.07;99650.59;5074556;28;20278;-74
2023/04/23 07:52:01;;;;;;;0.80;0.80;;;;;;;19.04;92.89;99649.91;5076833;28;20258;-75
2023/04/23 07:54:26;;;;;;;1.27;1.17;;;;;;;19.08;92.21;99655.81;5077149;28;20189;-75
2023/04/23 07:56:51;;;;;;;1.50;1.00;;;;;;;19.15;91.65;99649.28;5077954;28;20975;-74
2023/04/23 07:59:17;;;;;;;0.90;0.70;;;;;;;19.19;91.28;99642.94;5058171;28;21104;-75
2023/04/23 08:01:42;;;;;;;1.20;1.10;;;;;;;19.23;90.73;99645.41;5058315;28;21150;-76
2023/04/23 08:04:07;;;;;;;1.30;1.10;;;;;;;19.32;90.57;99643.13;5069295;28;20185;-75
2023/04/23 08:06:34;;;;;;;1.07;0.90;;;;;;;19.41;89.61;99647.00;5068994;28;20219;-75
2023/04/23 08:09:00;;;;;;;1.87;1.10;;;;;;;19.48;88.32;99642.25;5069675;28;20186;-76
2023/04/23 08:11:25;;;;;;;1.10;1.00;;;;;;;19.51;87.69;99634.22;5067496;28;20181;-73
2023/04/23 08:13:50;;;;;;;1.77;1.67;;;;;;;19.58;87.64;99630.31;5074104;28;20204;-73
2023/04/23 08:16:15;;;;;;;7.73;6.93;;;;;;;19.69;87.39;99626.22;5051149;28;20292;-76
2023/04/23 08:18:41;;;;;;;6.70;6.10;;;;;;;19.90;86.99;99624.16;5070287;28;20213;-75
2023/04/23 08:21:06;;;;;;;4.97;4.57;;;;;;;20.07;86.49;99623.16;5074249;28;20182;-76
2023/04/23 08:23:31;;;;;;;4.43;4.13;;;;;;;20.17;86.30;99618.22;5059526;28;20186;-74
2023/04/23 08:25:57;;;;;;;3.60;3.30;;;;;;;20.17;85.68;99616.41;5077412;28;20181;-72
2023/04/23 08:28:22;;;;;;;3.50;2.30;;;;;;;20.12;85.93;99605.34;5056067;28;20228;-74
2023/04/23 08:30:47;;;;;;;1.60;1.50;;;;;;;19.97;85.92;99606.25;5047191;28;20213;-73
2023/04/23 08:33:13;;;;;;;1.87;1.60;;;;;;;19.87;86.08;99612.06;5069943;28;20220;-74
2023/04/23 08:35:38;;;;;;;1.30;1.20;;;;;;;19.79;86.14;99609.00;5071801;28;20192;-76
2023/04/23 08:38:04;;;;;;;1.30;1.20;;;;;;;19.74;86.41;99613.66;5070061;28;20334;-75
2023/04/23 08:40:31;;;;;;;2.30;2.10;;;;;;;19.76;86.15;99609.19;5069376;28;20190;-76
2023/04/23 08:43:00;;;;;;;1.70;1.60;;;;;;;19.79;85.65;99606.38;5070167;28;20246;-76
2023/04/23 08:45:26;;;;;;;2.03;1.30;;;;;;;19.88;85.97;99605.03;5064067;28;20560;-72
2023/04/23 08:47:57;;;;;;;2.37;1.40;;;;;;;19.97;85.30;99608.88;5063683;28;20212;-74
2023/04/23 08:50:23;;;;;;;1.20;1.10;;;;;;;20.09;85.32;99595.88;5067793;28;20223;-75
2023/04/23 08:52:52;;;;;;;1.53;1.43;;;;;;;20.21;84.64;99598.69;5065331;28;20213;-76
2023/04/23 08:55:19;;;;;;;1.50;1.40;;;;;;;20.24;84.10;99602.00;5066930;28;20201;-74
2023/04/23 08:57:46;;;;;;;1.57;1.30;;;;;;;20.30;83.92;99592.91;5066317;28;20217;-74
2023/04/23 09:00:13;;;;;;;2.43;2.23;;;;;;;20.34;82.80;99599.66;5066096;28;20500;-75
2023/04/23 09:02:40;;;;;;;2.20;2.00;;;;;;;20.43;82.47;99590.34;5064958;28;20258;-76
2023/04/23 09:05:06;;;;;;;2.47;2.27;;;;;;;20.61;81.84;99596.25;5067465;28;20192;-77
2023/04/23 09:07:33;;;;;;;1.97;1.60;;;;;;;20.78;81.24;99587.34;5052334;28;20274;-75
2023/04/23 09:09:58;;;;;;;3.40;3.10;;;;;;;20.97;80.22;99586.19;5067731;28;21209;-75
2023/04/23 09:12:24;;;;;;;2.43;2.27;;;;;;;21.07;79.24;99589.09;5066748;28;20192;-76
2023/04/23 09:14:52;;;;;;;2.03;1.93;;;;;;;21.20;78.74;99589.13;5048893;28;20839;-76
2023/04/23 09:17:18;;;;;;;2.00;1.80;;;;;;;21.30;78.76;99583.16;5065244;28;20293;-76
2023/04/23 09:19:45;;;;;;;1.90;1.70;;;;;;;21.46;77.71;99577.75;5074375;28;20269;-75
2023/04/23 09:22:11;;;;;;;1.20;1.10;;;;;;;21.48;76.99;99573.22;5078217;28;20304;-75
2023/04/23 09:24:36;;;;;;;1.63;1.50;;;;;;;21.52;76.64;99565.13;5078820;28;20609;-76
2023/04/23 09:27:02;;;;;;;1.43;1.33;;;;;;;21.60;76.48;99558.44;5080030;28;20219;-73
2023/04/23 09:29:29;;;;;;;1.43;1.30;;;;;;;21.60;75.70;99553.16;5070054;28;20323;-76
2023/04/23 09:32:05;;;;;;;1.73;1.20;;;;;;;21.69;75.61;99551.69;5071098;28;20195;-73
2023/04/23 09:34:33;;;;;;;2.70;1.47;;;;;;;21.77;74.87;99541.50;5053427;28;20189;-74
2023/04/23 09:36:59;;;;;;;1.73;1.30;;;;;;;21.74;74.19;99533.81;5069447;28;20238;-76
2023/04/23 09:39:24;;;;;;;1.30;1.20;;;;;;;21.73;73.56;99542.66;5068743;28;20194;-76
2023/04/23 09:41:52;;;;;;;1.50;1.40;;;;;;;21.69;73.29;99530.63;5072690;28;20188;-75
2023/04/23 09:44:21;;;;;;;1.50;1.40;;;;;;;21.72;72.47;99529.56;5080612;28;20197;-75
2023/04/23 09:46:46;;;;;;;1.20;1.10;;;;;;;21.74;72.31;99530.31;5078439;28;20700;-75
2023/04/23 09:49:13;;;;;;;1.10;1.00;;;;;;;21.93;72.29;99528.13;5078123;28;20203;-74
2023/04/23 09:51:40;;;;;;;1.33;1.23;;;;;;;22.20;72.13;99529.78;5079873;28;20272;-75
2023/04/23 09:54:24;;;;;;;1.50;1.37;;;;;;;22.38;71.06;99524.19;5078695;28;20181;-75
2023/04/23 09:56:55;;;;;;;1.30;1.20;;;;;;;22.42;70.49;99520.41;5078264;28;20213;-76
2023/04/23 09:59:22;;;;;;;1.30;1.20;;;;;;;22.58;70.24;99517.50;5080462;28;20189;-75
2023/04/23 10:01:47;;;;;;;1.20;1.10;;;;;;;22.79;69.72;99514.28;5080583;28;20182;-74
2023/04/23 10:04:23;;;;;;;1.10;1.00;;;;;;;23.03;68.85;99506.38;5083650;28;20212;-72
2023/04/23 10:06:58;;;;;;;1.47;1.37;;;;;;;23.15;68.04;99504.59;5071675;28;20235;-75
2023/04/23 10:09:25;;;;;;;1.33;1.23;;;;;;;23.16;67.75;99501.00;5070816;28;20195;-74
2023/04/23 10:11:56;;;;;;;1.33;1.23;;;;;;;23.19;67.94;99494.69;5067778;28;20716;-73
2023/04/23 10:14:22;;;;;;;1.47;1.20;;;;;;;23.17;67.95;99494.78;5071421;28;20250;-75
2023/04/23 10:17:00;;;;;;;1.40;1.30;;;;;;;23.23;68.17;99486.47;5074197;28;20216;-75
2023/04/23 10:19:27;;;;;;;2.00;1.37;;;;;;;23.29;67.55;99487.78;5052332;28;20201;-73
2023/04/23 10:21:56;;;;;;;1.63;1.30;;;;;;;23.29;67.34;99485.97;5070882;28;20185;-75
2023/04/23 10:24:23;;;;;;;1.27;1.10;;;;;;;23.29;67.11;99485.16;5053930;28;20193;-74
2023/04/23 10:26:51;;;;;;;1.90;1.80;;;;;;;23.33;66.83;99480.47;5073811;28;20676;-75
2023/04/23 10:29:20;;;;;;;1.10;1.10;;;;;;;23.51;66.08;99476.44;5053528;28;20711;-75
2023/04/23 10:31:47;;;;;;;1.67;1.20;;;;;;;23.81;66.42;99484.78;5070650;28;20223;-73
2023/04/23 10:34:14;;;;;;;1.30;1.20;;;;;;;24.02;65.87;99477.00;5078333;28;20231;-75
2023/04/23 10:36:39;;;;;;;1.20;1.10;;;;;;;23.98;65.85;99470.28;5057463;28;20200;-75
2023/04/23 10:39:07;;;;;;;1.10;1.00;;;;;;;23.96;65.21;99475.69;5072681;28;20239;-75
2023/04/23 10:41:41;;;;;;;1.20;1.10;;;;;;;23.86;65.28;99475.53;5078216;28;20200;-75
2023/04/23 10:44:11;;;;;;;1.10;0.93;;;;;;;23.77;65.59;99470.13;5074310;28;20315;-73
2023/04/23 10:46:36;;;;;;;0.90;0.90;;;;;;;23.58;65.55;99472.38;5073068;28;20225;-73
2023/04/23 10:49:13;;;;;;;1.97;1.33;;;;;;;23.47;65.78;99464.41;5059717;28;20875;-74
2023/04/23 10:51:41;;;;;;;1.83;1.73;;;;;;;23.35;65.01;99470.63;5068907;28;20192;-75
2023/04/23 10:54:09;;;;;;;1.43;1.30;;;;;;;23.31;64.62;99463.91;5050702;28;21090;-74
2023/04/23 10:56:37;;;;;;;1.27;1.17;;;;;;;23.39;64.83;99453.63;5067433;28;20209;-75
2023/04/23 10:59:05;;;;;;;1.37;1.07;;;;;;;23.52;64.71;99446.44;5070876;28;20193;-74
2023/04/23 11:01:30;;;;;;;0.83;0.83;;;;;;;23.57;64.61;99439.00;5050265;28;20177;-75
2023/04/23 11:03:56;;;;;;;1.20;1.10;;;;;;;23.63;64.53;99439.47;5068363;28;20810;-74
2023/04/23 11:06:51;;;;;;;0.80;0.80;;;;;;;23.73;64.29;99424.63;5052630;28;20976;-72
2023/04/23 11:09:36;;;;;;;1.10;0.90;;;;;;;23.72;64.75;99426.41;5069967;28;20685;-74
2023/04/23 11:12:06;;;;;;;0.60;0.60;;;;;;;23.60;64.19;99412.34;5050355;28;20185;-74
2023/04/23 11:14:44;;;;;;;0.90;0.90;;;;;;;23.52;63.73;99412.09;5067695;28;20197;-73
2023/04/23 11:17:14;;;;;;;1.87;1.10;;;;;;;23.58;64.09;99418.72;5069652;28;20223;-74
2023/04/23 11:19:41;;;;;;;0.77;0.77;;;;;;;23.63;64.50;99407.78;5070379;28;21015;-74
2023/04/23 11:22:13;;;;;;;0.90;0.90;;;;;;;23.70;64.35;99401.06;5069577;28;20767;-75
2023/04/23 11:24:43;;;;;;;1.00;0.90;;;;;;;23.70;64.16;99398.44;5069367;28;20260;-74